Time;durP1;ratioP1;P1;durP2;ratioP2;P2;SDS_P1;SDS_P2;PMS_P1;PMS_P2;Temp;Humidity;BMP_temperature;BMP_pressure;BME280_temperature;BME280_humidity;BME280_pressure;Samples;Min_cycle;Max_cycle;Signal;HPM_P1;HPM_P2
2022/05/16 00:00:19;;;;;;;8.87;5.63;;;13.10;88.10;;;;;;4994400;28;20505;-81
2022/05/16 00:02:45;;;;;;;8.40;6.00;;;13.10;89.70;;;;;;4989830;28;20491;-80
2022/05/16 00:05:13;;;;;;;9.33;6.30;;;13.00;91.00;;;;;;4976365;29;20935;-81
2022/05/16 00:07:40;;;;;;;9.27;6.40;;;12.90;91.80;;;;;;4979340;28;20470;-80
2022/05/16 00:10:09;;;;;;;11.83;6.17;;;13.00;91.90;;;;;;4993807;28;20448;-81
2022/05/16 00:12:36;;;;;;;9.10;6.17;;;12.90;91.90;;;;;;4991086;28;21007;-80
2022/05/16 00:15:05;;;;;;;12.23;6.27;;;13.00;91.80;;;;;;4975504;28;20456;-79
2022/05/16 00:17:32;;;;;;;12.37;4.70;;;13.10;90.40;;;;;;4977928;28;20455;-81
2022/05/16 00:19:59;;;;;;;7.97;4.40;;;13.50;85.70;;;;;;4993721;28;20431;-81
2022/05/16 00:22:27;;;;;;;8.37;4.47;;;13.70;80.30;;;;;;4994355;28;20474;-80
2022/05/16 00:24:54;;;;;;;12.10;4.47;;;13.70;77.20;;;;;;4975954;28;20467;-80
2022/05/16 00:27:22;;;;;;;9.93;3.87;;;13.90;73.80;;;;;;4974764;28;20913;-80
2022/05/16 00:29:49;;;;;;;6.93;3.73;;;13.90;71.50;;;;;;4993086;28;20471;-81
2022/05/16 00:32:17;;;;;;;10.70;4.00;;;14.10;69.00;;;;;;4995127;28;20515;-80
2022/05/16 00:34:44;;;;;;;6.63;3.20;;;14.10;68.10;;;;;;4977509;28;20505;-81
2022/05/16 00:37:11;;;;;;;11.97;3.93;;;14.10;65.80;;;;;;4975784;28;20463;-81
2022/05/16 00:39:38;;;;;;;8.60;3.87;;;14.20;64.80;;;;;;4975999;28;20467;-81
2022/05/16 00:42:05;;;;;;;10.00;3.60;;;14.40;63.40;;;;;;4975330;29;20472;-80
2022/05/16 00:44:34;;;;;;;7.43;3.20;;;14.30;61.90;;;;;;4991465;28;20459;-81
2022/05/16 00:47:02;;;;;;;17.70;4.27;;;14.20;63.20;;;;;;4994782;28;20475;-80
2022/05/16 00:49:33;;;;;;;7.67;3.73;;;14.10;63.20;;;;;;4978072;28;20452;-81
2022/05/16 00:52:03;;;;;;;6.37;3.60;;;13.90;63.10;;;;;;4975816;29;20549;-80
2022/05/16 00:54:33;;;;;;;8.50;3.23;;;13.80;64.40;;;;;;4990626;28;20447;-81
2022/05/16 00:57:02;;;;;;;10.27;3.77;;;13.70;65.40;;;;;;4994756;28;20474;-81
2022/05/16 00:59:36;;;;;;;6.47;3.37;;;13.50;69.00;;;;;;4974526;28;20470;-81
2022/05/16 01:04:50;;;;;;;6.03;3.73;;;13.30;73.00;;;;;;4956326;29;20495;-81
2022/05/16 01:07:23;;;;;;;5.77;3.63;;;13.30;74.40;;;;;;4956797;28;20532;-81
2022/05/16 01:09:50;;;;;;;9.60;3.70;;;13.10;74.20;;;;;;4993283;28;20486;-81
2022/05/16 01:12:16;;;;;;;5.43;3.10;;;13.00;74.40;;;;;;4994470;28;20478;-80
2022/05/16 01:14:50;;;;;;;7.90;3.63;;;13.00;75.50;;;;;;4975532;28;20452;-81
2022/05/16 01:17:17;;;;;;;10.27;5.10;;;13.00;75.20;;;;;;4974971;28;20463;-80
2022/05/16 01:19:44;;;;;;;7.40;3.83;;;13.00;75.90;;;;;;4991997;28;20465;-80
2022/05/16 01:22:23;;;;;;;7.63;3.77;;;13.00;75.80;;;;;;4994561;28;20474;-81
2022/05/16 01:24:50;;;;;;;6.73;4.00;;;13.00;76.10;;;;;;4975799;28;20947;-80
2022/05/16 01:27:17;;;;;;;5.97;3.30;;;12.90;76.00;;;;;;4975144;29;20452;-80
2022/05/16 01:29:43;;;;;;;6.30;3.17;;;13.00;75.40;;;;;;4992652;28;20451;-81
2022/05/16 01:32:11;;;;;;;8.27;4.20;;;13.00;75.60;;;;;;4994158;28;20550;-80
2022/05/16 01:34:38;;;;;;;5.90;3.57;;;13.10;76.50;;;;;;4977160;28;20456;-81
2022/05/16 01:37:05;;;;;;;6.70;3.90;;;13.00;77.40;;;;;;4974565;28;20523;-81
2022/05/16 01:39:33;;;;;;;9.13;4.73;;;12.90;76.40;;;;;;4989288;28;20462;-80
2022/05/16 01:42:00;;;;;;;5.90;3.17;;;12.80;77.70;;;;;;4993846;28;20481;-81
2022/05/16 01:44:26;;;;;;;6.53;3.90;;;12.70;79.40;;;;;;4979543;28;20484;-81
2022/05/16 01:46:53;;;;;;;5.80;3.43;;;12.70;80.20;;;;;;4974924;28;20472;-80
2022/05/16 01:49:20;;;;;;;8.40;3.77;;;12.80;79.50;;;;;;4974786;28;20452;-81
2022/05/16 01:51:47;;;;;;;7.80;3.73;;;12.70;79.40;;;;;;4976202;28;20483;-80
2022/05/16 01:54:14;;;;;;;6.87;4.27;;;12.80;79.50;;;;;;4994088;28;20455;-81
2022/05/16 01:56:44;;;;;;;7.10;4.17;;;12.70;79.40;;;;;;4991251;28;20457;-80
2022/05/16 01:59:10;;;;;;;8.97;4.43;;;12.90;79.60;;;;;;4973425;28;20459;-81
2022/05/16 02:01:37;;;;;;;6.33;3.03;;;12.80;79.50;;;;;;4974298;28;20479;-81
2022/05/16 02:04:04;;;;;;;5.80;3.80;;;12.80;79.50;;;;;;4993141;28;20461;-81
2022/05/16 02:06:31;;;;;;;8.47;3.90;;;12.80;79.50;;;;;;4993924;28;20459;-81
2022/05/16 02:08:58;;;;;;;8.50;3.63;;;12.80;79.50;;;;;;4974154;28;20452;-80
2022/05/16 02:11:25;;;;;;;8.73;4.80;;;12.70;79.40;;;;;;4975222;28;20490;-80
2022/05/16 02:13:53;;;;;;;7.93;4.30;;;12.80;79.50;;;;;;4986411;28;20522;-81
2022/05/16 02:16:20;;;;;;;10.03;4.70;;;12.80;79.50;;;;;;4993713;28;20469;-81
2022/05/16 02:18:47;;;;;;;9.80;3.90;;;12.80;79.50;;;;;;4979552;28;20439;-81
2022/05/16 02:26:47;;;;;;;6.70;4.13;;;12.70;77.20;;;;;;4994026;28;20462;-81
2022/05/16 02:29:18;;;;;;;10.00;3.80;;;12.70;79.40;;;;;;4988893;28;20478;-81
2022/05/16 02:31:45;;;;;;;8.20;4.27;;;12.60;79.40;;;;;;4993432;28;20494;-81
2022/05/16 02:34:12;;;;;;;8.60;4.87;;;12.50;83.10;;;;;;4977070;28;20543;-80
2022/05/16 02:36:39;;;;;;;11.30;5.20;;;12.40;83.30;;;;;;4973860;28;20452;-80
2022/05/16 02:39:06;;;;;;;9.43;4.30;;;12.40;84.20;;;;;;4986136;28;20451;-80
2022/05/16 02:41:33;;;;;;;9.83;4.20;;;12.40;84.10;;;;;;4976954;28;20510;-81
2022/05/16 02:43:59;;;;;;;9.47;5.07;;;12.30;85.60;;;;;;4967235;28;20455;-80
2022/05/16 02:46:27;;;;;;;7.10;4.43;;;12.30;85.70;;;;;;4956578;28;20462;-80
2022/05/16 02:48:54;;;;;;;8.07;4.60;;;12.40;85.50;;;;;;4956836;28;20456;-79
2022/05/16 02:51:21;;;;;;;7.47;4.77;;;12.30;84.90;;;;;;4959368;28;20480;-80
2022/05/16 02:53:48;;;;;;;7.17;5.60;;;12.30;85.90;;;;;;4956296;29;20467;-80
2022/05/16 02:56:14;;;;;;;8.03;4.53;;;12.30;87.70;;;;;;4960191;28;20459;-80
2022/05/16 02:58:43;;;;;;;11.17;5.57;;;12.20;88.10;;;;;;4977754;28;21006;-79
2022/05/16 03:01:11;;;;;;;13.43;5.67;;;12.30;89.00;;;;;;4976634;28;20546;-80
2022/05/16 03:03:39;;;;;;;10.80;5.97;;;12.20;89.40;;;;;;4959115;28;20865;-79
2022/05/16 03:06:06;;;;;;;9.13;5.80;;;12.20;90.10;;;;;;4974074;29;20487;-80
2022/05/16 03:08:33;;;;;;;7.97;5.77;;;12.20;90.60;;;;;;4969878;28;20522;-81
2022/05/16 03:11:00;;;;;;;10.13;6.17;;;12.10;91.10;;;;;;4968529;29;20451;-82
2022/05/16 03:13:27;;;;;;;7.27;5.77;;;12.00;91.80;;;;;;4971005;29;20475;-82
2022/05/16 03:15:54;;;;;;;9.80;6.13;;;11.90;91.80;;;;;;4969968;28;20808;-82
2022/05/16 03:18:22;;;;;;;9.20;6.03;;;11.80;93.20;;;;;;4966190;28;20455;-82
2022/05/16 03:20:51;;;;;;;10.10;7.60;;;11.80;95.20;;;;;;4966088;28;20499;-81
2022/05/16 03:23:17;;;;;;;12.10;10.90;;;11.70;96.80;;;;;;4975125;28;20463;-80
2022/05/16 03:25:44;;;;;;;12.13;11.07;;;11.70;97.80;;;;;;4970189;29;20490;-81
2022/05/16 03:28:11;;;;;;;15.77;14.70;;;11.70;98.30;;;;;;4982989;28;20877;-84
2022/05/16 03:30:38;;;;;;;8.93;7.40;;;11.70;99.80;;;;;;4989230;28;20455;-83
2022/05/16 03:33:05;;;;;;;13.70;12.50;;;11.90;98.40;;;;;;4977505;28;20472;-82
2022/05/16 03:35:32;;;;;;;12.50;11.33;;;11.90;98.00;;;;;;4973271;28;20443;-82
2022/05/16 03:38:00;;;;;;;10.83;9.70;;;11.90;98.40;;;;;;4988299;28;20447;-83
2022/05/16 03:40:45;;;;;;;11.70;10.60;;;11.70;98.00;;;;;;4998897;28;20441;-83
2022/05/16 03:43:13;;;;;;;12.70;11.43;;;11.80;98.40;;;;;;4985099;28;20614;-83
2022/05/16 03:45:40;;;;;;;11.80;10.80;;;11.70;99.10;;;;;;4976542;29;20472;-82
2022/05/16 03:48:08;;;;;;;26.20;23.77;;;11.60;99.90;;;;;;4984228;28;20463;-80
2022/05/16 03:50:36;;;;;;;28.33;26.43;;;11.60;99.90;;;;;;4977632;28;20448;-82
2022/05/16 03:53:05;;;;;;;32.37;30.67;;;11.70;99.90;;;;;;4976736;28;20469;-81
2022/05/16 03:55:32;;;;;;;27.83;26.33;;;11.70;99.90;;;;;;4976566;29;20510;-80
2022/05/16 03:58:00;;;;;;;26.20;24.50;;;11.70;99.90;;;;;;4985025;28;20455;-81
2022/05/16 04:00:27;;;;;;;17.30;16.10;;;11.80;99.90;;;;;;4994243;28;20669;-81
2022/05/16 04:02:53;;;;;;;16.23;14.83;;;11.90;99.90;;;;;;4995300;28;20474;-81
2022/05/16 04:05:23;;;;;;;16.53;15.20;;;12.00;99.90;;;;;;4996381;28;20509;-81
2022/05/16 04:07:51;;;;;;;13.27;12.17;;;12.20;99.90;;;;;;4994518;28;20454;-81
2022/05/16 04:10:20;;;;;;;15.27;11.87;;;12.30;99.90;;;;;;4981182;28;20448;-81
2022/05/16 04:12:47;;;;;;;11.43;8.93;;;12.50;99.80;;;;;;4981066;28;20498;-81
2022/05/16 04:15:14;;;;;;;14.00;6.47;;;12.60;97.80;;;;;;4995580;28;20451;-81
2022/05/16 04:17:41;;;;;;;12.63;6.33;;;12.90;95.60;;;;;;4985596;28;20558;-81
2022/05/16 04:20:10;;;;;;;7.27;5.47;;;13.00;94.70;;;;;;4974914;28;20505;-81
2022/05/16 04:22:37;;;;;;;8.77;5.97;;;13.10;94.40;;;;;;4974621;28;20508;-80
2022/05/16 04:25:06;;;;;;;13.60;6.97;;;13.20;94.30;;;;;;4964582;29;20539;-81
2022/05/16 04:27:34;;;;;;;9.60;5.60;;;13.30;92.80;;;;;;4976398;29;20460;-80
2022/05/16 04:30:00;;;;;;;16.30;6.43;;;13.40;92.50;;;;;;4968460;29;20460;-80
2022/05/16 04:32:27;;;;;;;10.33;5.97;;;13.50;92.80;;;;;;4962787;29;20839;-80
2022/05/16 04:34:54;;;;;;;7.13;5.70;;;13.60;92.50;;;;;;4968690;29;20503;-81
2022/05/16 04:37:21;;;;;;;11.13;6.07;;;13.70;92.50;;;;;;4967671;29;21042;-81
2022/05/16 04:39:47;;;;;;;12.63;6.00;;;13.70;92.50;;;;;;4969993;29;20528;-81
2022/05/16 04:45:00;;;;;;;14.07;6.20;;;13.90;92.60;;;;;;4953076;29;20488;-81
2022/05/16 04:47:27;;;;;;;14.33;5.20;;;14.10;91.90;;;;;;4953273;29;20453;-80
2022/05/16 04:49:53;;;;;;;11.87;5.30;;;14.20;91.00;;;;;;4951396;29;20464;-80
2022/05/16 04:52:20;;;;;;;8.30;5.33;;;14.40;90.00;;;;;;4953069;29;20477;-81
2022/05/16 04:54:48;;;;;;;7.60;5.10;;;14.40;89.50;;;;;;4952304;29;20851;-80
2022/05/16 04:57:15;;;;;;;10.67;5.03;;;14.70;86.80;;;;;;4952483;29;20457;-80
2022/05/16 04:59:42;;;;;;;7.00;4.93;;;14.90;86.90;;;;;;4950125;29;20461;-82
2022/05/16 05:02:10;;;;;;;8.57;5.50;;;15.10;86.10;;;;;;4947761;29;20483;-81
2022/05/16 05:04:37;;;;;;;8.03;5.73;;;15.30;86.60;;;;;;4949058;29;20460;-80
2022/05/16 05:07:04;;;;;;;13.13;5.30;;;15.50;84.70;;;;;;4949153;29;20492;-81
2022/05/16 05:09:30;;;;;;;11.20;4.40;;;15.70;81.60;;;;;;4942919;29;20468;-82
2022/05/16 05:14:42;;;;;;;10.63;4.37;;;16.00;74.70;;;;;;4943147;29;20488;-81
2022/05/16 05:17:12;;;;;;;6.93;4.20;;;16.10;68.70;;;;;;4943139;29;20449;-82
2022/05/16 05:19:40;;;;;;;9.93;4.50;;;16.30;68.40;;;;;;4963376;28;20462;-82
2022/05/16 05:22:07;;;;;;;7.53;3.90;;;16.40;69.30;;;;;;4962850;29;20472;-83
2022/05/16 05:24:34;;;;;;;6.50;4.00;;;16.60;67.90;;;;;;4967350;29;20451;-83
2022/05/16 05:27:01;;;;;;;8.13;4.90;;;16.70;67.10;;;;;;4963290;28;20488;-83
2022/05/16 05:29:28;;;;;;;8.17;4.63;;;16.90;67.30;;;;;;4963310;28;20516;-82
2022/05/16 05:31:54;;;;;;;16.07;4.97;;;17.20;63.70;;;;;;4964601;29;20474;-82
2022/05/16 05:34:23;;;;;;;12.00;4.47;;;17.30;60.50;;;;;;4963112;29;20453;-82
2022/05/16 05:36:50;;;;;;;7.27;3.77;;;17.50;59.70;;;;;;4962731;28;20460;-81
2022/05/16 05:39:17;;;;;;;7.53;3.37;;;17.50;58.30;;;;;;4971250;28;20770;-80
2022/05/16 05:41:44;;;;;;;8.03;4.07;;;17.70;57.60;;;;;;4973575;28;20537;-82
2022/05/16 05:44:12;;;;;;;9.80;4.53;;;17.70;59.70;;;;;;4969241;28;20455;-82
2022/05/16 05:46:40;;;;;;;7.77;4.67;;;17.70;59.70;;;;;;4970458;28;20497;-82
2022/05/16 05:49:09;;;;;;;10.83;4.60;;;17.80;59.80;;;;;;4966114;28;20551;-82
2022/05/16 05:51:37;;;;;;;6.07;3.17;;;17.80;59.80;;;;;;5003443;23;20491;-81
2022/05/16 05:54:05;;;;;;;7.93;3.10;;;18.00;59.70;;;;;;4997646;28;20471;-81
2022/05/16 05:56:32;;;;;;;9.07;4.23;;;18.00;57.40;;;;;;5008884;28;20612;-81
2022/05/16 05:58:58;;;;;;;8.80;4.10;;;18.00;56.00;;;;;;5006856;28;20500;-82
2022/05/16 06:01:26;;;;;;;10.23;4.20;;;18.10;56.00;;;;;;5007190;28;20450;-81
2022/05/16 06:03:53;;;;;;;7.87;4.10;;;18.10;55.90;;;;;;5006622;28;20454;-81
2022/05/16 06:06:20;;;;;;;11.27;4.90;;;18.10;57.80;;;;;;5006084;28;20484;-80
2022/05/16 06:08:48;;;;;;;9.50;4.80;;;18.30;60.00;;;;;;5004323;28;20479;-80
2022/05/16 06:11:15;;;;;;;8.40;4.23;;;18.40;59.20;;;;;;5008000;28;20452;-80
2022/05/16 06:13:42;;;;;;;7.20;3.90;;;18.50;59.50;;;;;;5014542;28;20474;-81
2022/05/16 06:16:09;;;;;;;5.80;3.70;;;18.60;57.70;;;;;;5009392;28;20458;-81
2022/05/16 06:18:36;;;;;;;8.20;4.30;;;18.70;56.80;;;;;;5001609;28;20514;-81
2022/05/16 06:21:03;;;;;;;9.93;5.00;;;18.80;57.10;;;;;;5005501;28;20456;-80
2022/05/16 06:23:30;;;;;;;11.07;4.63;;;18.90;57.50;;;;;;5020068;28;20474;-81
2022/05/16 06:26:00;;;;;;;5.90;3.33;;;19.00;54.60;;;;;;5018389;28;20534;-79
2022/05/16 06:28:29;;;;;;;8.57;3.80;;;19.30;51.80;;;;;;5005641;28;20478;-81
2022/05/16 06:30:56;;;;;;;9.27;3.70;;;19.30;46.30;;;;;;5008905;28;20450;-80
2022/05/16 06:33:25;;;;;;;9.23;3.97;;;19.50;45.50;;;;;;5011314;28;20484;-80
2022/05/16 06:35:53;;;;;;;8.13;3.77;;;19.50;45.40;;;;;;5010211;28;20448;-79
2022/05/16 06:38:21;;;;;;;7.17;3.20;;;19.40;45.40;;;;;;5004913;28;20460;-79
2022/05/16 06:40:49;;;;;;;6.70;3.37;;;19.30;42.60;;;;;;5016744;28;20449;-80
2022/05/16 06:43:20;;;;;;;7.10;3.70;;;19.20;40.30;;;;;;5013430;28;21000;-81
2022/05/16 06:45:47;;;;;;;6.93;3.50;;;19.10;42.60;;;;;;5015208;28;20477;-80
2022/05/16 06:48:14;;;;;;;7.80;4.10;;;18.90;47.00;;;;;;5011957;28;20460;-80
2022/05/16 06:50:42;;;;;;;8.40;3.83;;;18.70;55.40;;;;;;4998773;28;20462;-81
2022/05/16 06:53:12;;;;;;;12.03;4.70;;;18.60;65.20;;;;;;4998793;28;20868;-82
2022/05/16 06:55:39;;;;;;;8.60;3.80;;;18.70;61.50;;;;;;5018116;28;20835;-81
2022/05/16 06:58:06;;;;;;;7.93;4.30;;;18.70;56.50;;;;;;5016736;28;20464;-82
2022/05/16 07:00:34;;;;;;;8.40;3.43;;;18.60;54.10;;;;;;4998567;28;20458;-83
2022/05/16 07:03:01;;;;;;;10.50;3.20;;;18.70;55.70;;;;;;5000405;28;21142;-84
2022/05/16 07:05:28;;;;;;;5.57;3.23;;;18.60;55.00;;;;;;5015421;28;20458;-82
2022/05/16 07:07:57;;;;;;;9.53;4.10;;;18.60;51.90;;;;;;5023926;28;20509;-85
2022/05/16 07:10:24;;;;;;;9.90;4.33;;;18.60;52.40;;;;;;5015566;28;21101;-83
2022/05/16 07:12:50;;;;;;;9.47;3.80;;;18.60;55.20;;;;;;5009569;28;20851;-85
2022/05/16 07:15:17;;;;;;;10.27;4.20;;;18.80;54.60;;;;;;4999980;28;20455;-83
2022/05/16 07:17:46;;;;;;;11.03;5.40;;;18.80;54.90;;;;;;5005117;28;20824;-85
2022/05/16 07:20:12;;;;;;;7.63;4.33;;;18.70;57.70;;;;;;4999151;28;20484;-82
2022/05/16 07:22:42;;;;;;;9.17;4.10;;;18.60;57.50;;;;;;5008220;28;20479;-83
2022/05/16 07:25:10;;;;;;;8.57;4.20;;;18.50;57.30;;;;;;5003390;28;20451;-85
2022/05/16 07:30:22;;;;;;;9.97;4.57;;;18.30;57.50;;;;;;5000900;28;20449;-83
2022/05/16 07:32:50;;;;;;;7.90;4.50;;;18.40;58.50;;;;;;5020171;28;20541;-84
2022/05/16 07:35:20;;;;;;;11.23;4.47;;;18.40;58.60;;;;;;5020976;28;20452;-83
2022/05/16 07:37:47;;;;;;;7.90;4.73;;;18.50;54.00;;;;;;5015800;28;20464;-84
2022/05/16 07:40:16;;;;;;;10.50;5.00;;;18.60;52.90;;;;;;5003048;28;20456;-86
2022/05/16 07:42:43;;;;;;;8.27;4.27;;;18.70;54.90;;;;;;5014613;28;20487;-84
2022/05/16 07:45:11;;;;;;;11.33;4.20;;;18.90;53.70;;;;;;5027246;28;20871;-84
2022/05/16 07:47:38;;;;;;;8.23;4.90;;;19.00;52.30;;;;;;5002710;28;20540;-85
2022/05/16 07:50:07;;;;;;;10.03;4.33;;;19.10;55.30;;;;;;5009473;28;20960;-85
2022/05/16 07:52:34;;;;;;;10.43;4.37;;;19.10;52.40;;;;;;5001277;28;20480;-83
2022/05/16 07:55:02;;;;;;;8.40;5.30;;;19.00;57.10;;;;;;5000604;28;20986;-81
2022/05/16 07:57:30;;;;;;;9.60;4.43;;;18.90;56.90;;;;;;5002389;28;20729;-85
2022/05/16 07:59:56;;;;;;;7.67;4.63;;;18.70;56.50;;;;;;4994349;28;20200;-82
2022/05/16 08:02:23;;;;;;;9.40;5.53;;;18.70;58.60;;;;;;4994533;28;20480;-82
2022/05/16 08:04:50;;;;;;;10.63;5.23;;;18.70;59.00;;;;;;4994957;28;20460;-82
2022/05/16 08:07:18;;;;;;;10.23;5.70;;;18.80;61.60;;;;;;4995484;28;21000;-83
2022/05/16 08:12:32;;;;;;;11.40;5.53;;;19.10;55.50;;;;;;4995029;28;20450;-84
2022/05/16 08:15:00;;;;;;;7.20;4.37;;;19.30;52.60;;;;;;4995114;28;20455;-84
2022/05/16 08:17:27;;;;;;;12.33;5.17;;;19.30;52.60;;;;;;4994737;28;20448;-84
2022/05/16 08:19:55;;;;;;;11.33;4.17;;;19.50;50.60;;;;;;4994056;28;20786;-84
2022/05/16 08:22:28;;;;;;;10.13;5.00;;;19.70;47.10;;;;;;4994977;28;20881;-82
2022/05/16 08:24:55;;;;;;;8.97;4.30;;;20.00;47.40;;;;;;4994832;28;20449;-83
2022/05/16 08:27:22;;;;;;;9.10;4.50;;;20.20;46.20;;;;;;4994918;28;20481;-83
2022/05/16 08:29:49;;;;;;;15.10;5.33;;;20.50;45.10;;;;;;4994876;28;20466;-83
2022/05/16 08:32:16;;;;;;;13.33;4.30;;;20.80;43.40;;;;;;4994861;28;20478;-82
2022/05/16 08:34:43;;;;;;;10.23;4.90;;;21.30;40.50;;;;;;4995004;28;20492;-82
2022/05/16 08:40:01;;;;;;;12.07;4.73;;;21.30;37.00;;;;;;4994819;28;20535;-83
2022/05/16 08:42:39;;;;;;;8.80;4.20;;;21.40;36.60;;;;;;4993771;28;20881;-83
2022/05/16 08:45:14;;;;;;;7.70;4.17;;;21.80;37.60;;;;;;4994381;28;20205;-84
2022/05/16 08:47:50;;;;;;;9.63;4.20;;;23.00;34.40;;;;;;4992162;28;20510;-84
2022/05/16 08:50:21;;;;;;;10.00;5.00;;;23.90;28.90;;;;;;4992552;28;20460;-83
2022/05/16 08:52:52;;;;;;;17.23;3.83;;;24.40;24.70;;;;;;4992520;28;20489;-84
2022/05/16 08:55:29;;;;;;;10.70;3.50;;;24.70;22.40;;;;;;4993652;28;20461;-85
2022/05/16 08:58:00;;;;;;;10.73;4.30;;;25.30;23.50;;;;;;4993072;28;20479;-84
2022/05/16 09:00:32;;;;;;;10.70;4.40;;;25.20;22.50;;;;;;4992672;28;20469;-85
2022/05/16 09:03:00;;;;;;;8.20;4.00;;;25.70;20.10;;;;;;4993538;28;20513;-85
2022/05/16 09:05:33;;;;;;;8.63;4.40;;;26.20;18.40;;;;;;4992433;28;20811;-84
2022/05/16 09:08:01;;;;;;;10.30;3.80;;;26.80;16.80;;;;;;4992941;28;20508;-85
2022/05/16 09:10:43;;;;;;;9.33;3.50;;;27.10;14.00;;;;;;4991905;28;20836;-85
2022/05/16 09:13:22;;;;;;;10.20;3.50;;;27.60;13.40;;;;;;4991026;28;20482;-84
2022/05/16 09:15:58;;;;;;;12.30;3.97;;;27.60;12.00;;;;;;4993228;28;20948;-82
2022/05/16 09:18:33;;;;;;;14.67;3.33;;;28.10;9.90;;;;;;4994412;28;20966;-83
2022/05/16 09:21:08;;;;;;;9.17;3.90;;;28.70;7.60;;;;;;4994463;28;20449;-83
2022/05/16 09:23:48;;;;;;;7.10;3.33;;;28.50;7.40;;;;;;4994564;28;20486;-83
2022/05/16 09:26:35;;;;;;;12.50;3.60;;;28.70;8.60;;;;;;4993966;28;20443;-83
2022/05/16 09:29:11;;;;;;;11.87;4.00;;;28.30;6.90;;;;;;4992564;28;20460;-83
2022/05/16 09:31:42;;;;;;;9.10;3.63;;;28.30;6.60;;;;;;4993740;28;20465;-82
2022/05/16 09:34:10;;;;;;;5.90;3.50;;;28.80;7.00;;;;;;4993807;28;20848;-82
2022/05/16 09:36:39;;;;;;;9.40;5.03;;;29.40;4.90;;;;;;4993621;28;20841;-84
2022/05/16 09:39:08;;;;;;;8.53;3.00;;;29.80;2.90;;;;;;4992777;28;20462;-83
2022/05/16 09:41:44;;;;;;;6.73;3.13;;;30.30;1.00;;;;;;4993171;28;20454;-83
2022/05/16 09:44:15;;;;;;;8.37;3.70;;;30.50;1.00;;;;;;4993056;28;20461;-83
2022/05/16 09:46:44;;;;;;;9.57;3.60;;;30.90;1.00;;;;;;4992459;28;20456;-79
2022/05/16 09:49:19;;;;;;;8.73;3.13;;;30.80;1.00;;;;;;4992105;28;20462;-80
2022/05/16 09:51:49;;;;;;;6.20;2.80;;;31.00;1.00;;;;;;4992841;28;20480;-79
2022/05/16 09:54:30;;;;;;;9.70;3.60;;;31.00;1.00;;;;;;4992803;28;20485;-80
2022/05/16 09:57:10;;;;;;;6.95;2.90;;;31.40;1.00;;;;;;4993474;28;20463;-81
2022/05/16 09:59:40;;;;;;;8.73;2.93;;;31.30;1.00;;;;;;4992948;28;20209;-82
2022/05/16 10:02:13;;;;;;;6.00;2.60;;;30.50;1.00;;;;;;4994807;28;20957;-82
2022/05/16 10:04:43;;;;;;;7.17;2.90;;;31.40;1.00;;;;;;4996867;28;20469;-82
2022/05/16 10:07:10;;;;;;;6.87;2.27;;;31.30;1.00;;;;;;5014033;28;20473;-82
2022/05/16 10:09:41;;;;;;;5.80;2.60;;;32.20;1.00;;;;;;5011781;28;20518;-82
2022/05/16 10:12:12;;;;;;;7.07;2.83;;;32.80;1.00;;;;;;5014864;28;20484;-82
2022/05/16 10:14:39;;;;;;;6.00;2.73;;;32.60;1.00;;;;;;5015376;28;20945;-82
2022/05/16 10:17:11;;;;;;;5.80;2.60;;;32.90;1.00;;;;;;5016282;28;20632;-82
2022/05/16 10:19:40;;;;;;;10.63;2.70;;;32.80;1.00;;;;;;5018337;28;20482;-82
2022/05/16 10:22:11;;;;;;;5.13;2.50;;;32.70;1.00;;;;;;5018298;28;20447;-82
2022/05/16 10:24:43;;;;;;;7.87;2.40;;;33.30;1.00;;;;;;5017500;28;20453;-82
2022/05/16 10:27:13;;;;;;;11.00;2.93;;;34.20;1.00;;;;;;5018052;28;20463;-83
2022/05/16 10:29:43;;;;;;;7.60;2.47;;;32.50;1.00;;;;;;5020755;28;20453;-82
2022/05/16 10:35:05;;;;;;;8.90;2.80;;;32.90;1.00;;;;;;5019460;28;20430;-83
2022/05/16 10:37:33;;;;;;;6.73;2.93;;;32.90;1.00;;;;;;5016645;28;20458;-83
2022/05/16 10:40:07;;;;;;;9.23;2.40;;;32.20;1.00;;;;;;5015736;28;20456;-83
2022/05/16 10:42:40;;;;;;;7.90;2.50;;;32.50;1.00;;;;;;5016605;28;20452;-83
2022/05/16 10:45:13;;;;;;;6.67;2.67;;;32.80;1.00;;;;;;5017159;28;20460;-83
2022/05/16 10:47:47;;;;;;;9.73;2.50;;;33.40;1.00;;;;;;5017207;28;20457;-83
2022/05/16 10:50:17;;;;;;;7.17;2.60;;;34.30;1.00;;;;;;5013973;28;20431;-83
2022/05/16 10:52:47;;;;;;;5.67;2.30;;;35.00;1.00;;;;;;5016541;28;20513;-83
2022/05/16 10:55:14;;;;;;;6.60;2.37;;;34.00;1.00;;;;;;5016655;28;20434;-82
2022/05/16 10:58:15;;;;;;;13.63;2.50;;;33.00;1.00;;;;;;5016105;28;20458;-83
2022/05/16 11:00:48;;;;;;;6.03;2.73;;;32.70;1.00;;;;;;5016046;28;20433;-82
2022/05/16 11:03:43;;;;;;;9.73;2.13;;;32.60;1.00;;;;;;5016647;28;20829;-82
2022/05/16 11:06:23;;;;;;;13.17;2.93;;;32.60;1.00;;;;;;5016031;28;20456;-83
2022/05/16 11:08:59;;;;;;;10.30;2.40;;;32.60;1.00;;;;;;5015928;28;20430;-81
2022/05/16 11:11:31;;;;;;;6.90;2.73;;;32.00;1.00;;;;;;5016128;28;20468;-81
2022/05/16 11:14:07;;;;;;;5.75;2.50;;;31.40;1.00;;;;;;5015491;28;20466;-83
2022/05/16 11:16:38;;;;;;;8.57;2.57;;;31.00;1.00;;;;;;5015896;28;20198;-81
2022/05/16 11:19:16;;;;;;;17.80;3.30;;;30.50;1.00;;;;;;5015857;28;20555;-80
2022/05/16 11:21:50;;;;;;;25.23;21.27;;;29.80;1.00;;;;;;5016458;28;20459;-79
2022/05/16 11:24:27;;;;;;;10.30;3.30;;;30.20;1.00;;;;;;5016703;28;20479;-79
2022/05/16 11:27:02;;;;;;;6.50;3.23;;;30.50;1.00;;;;;;5016217;28;20434;-80
2022/05/16 11:29:37;;;;;;;5.90;3.13;;;30.40;1.00;;;;;;5014170;28;20536;-80
2022/05/16 11:32:11;;;;;;;5.90;2.87;;;30.20;1.00;;;;;;5015578;28;20530;-80
2022/05/16 11:34:50;;;;;;;5.93;2.73;;;30.50;1.00;;;;;;5014905;28;20431;-80
2022/05/16 11:37:27;;;;;;;6.70;2.70;;;30.60;1.00;;;;;;5015551;28;20494;-80
2022/05/16 11:40:01;;;;;;;6.50;2.60;;;29.60;1.00;;;;;;5014510;28;20446;-80
2022/05/16 11:42:34;;;;;;;8.40;3.40;;;28.60;1.00;;;;;;5007093;28;20485;-77
2022/05/16 11:45:14;;;;;;;8.20;3.00;;;27.90;1.00;;;;;;4996086;28;20465;-79
2022/05/16 11:47:47;;;;;;;10.33;3.23;;;27.10;1.30;;;;;;4994754;28;20450;-80
2022/05/16 11:50:22;;;;;;;7.23;3.23;;;27.20;4.20;;;;;;4993999;28;20454;-82
2022/05/16 11:52:55;;;;;;;6.03;2.97;;;26.80;4.40;;;;;;5012447;22;20464;-80
2022/05/16 12:01:00;;;;;;;6.67;3.30;;;26.80;5.90;;;;;;4980904;28;20450;-81
2022/05/16 12:03:36;;;;;;;9.27;3.30;;;27.10;7.20;;;;;;4979910;28;20474;-79
2022/05/16 12:06:16;;;;;;;11.03;4.17;;;27.30;5.80;;;;;;4979812;28;20454;-78
2022/05/16 12:08:46;;;;;;;13.10;3.83;;;27.80;5.90;;;;;;4980908;28;20426;-79
2022/05/16 12:11:21;;;;;;;10.00;3.77;;;28.00;5.30;;;;;;4977200;28;20422;-80
2022/05/16 12:14:02;;;;;;;10.37;3.60;;;27.60;7.10;;;;;;4977360;28;20606;-81
2022/05/16 12:16:34;;;;;;;12.07;4.40;;;26.90;8.30;;;;;;4977284;28;20440;-81
2022/05/16 12:19:17;;;;;;;7.63;4.33;;;26.50;11.40;;;;;;4976737;28;21069;-80
2022/05/16 12:21:56;;;;;;;9.17;4.70;;;25.50;14.30;;;;;;4977598;28;20475;-80
2022/05/16 12:24:41;;;;;;;7.67;4.83;;;26.00;16.40;;;;;;4977094;28;20447;-80
2022/05/16 12:27:12;;;;;;;10.60;5.10;;;27.00;13.90;;;;;;4977681;28;20506;-80
2022/05/16 12:29:48;;;;;;;9.20;5.50;;;27.60;9.60;;;;;;4977404;28;20459;-80
2022/05/16 12:32:49;;;;;;;8.03;4.90;;;27.20;9.30;;;;;;4977799;28;20505;-80
2022/05/16 12:35:35;;;;;;;10.03;5.37;;;27.40;11.20;;;;;;4977653;28;20462;-81
2022/05/16 12:38:03;;;;;;;13.80;5.63;;;27.30;11.10;;;;;;4978785;28;20441;-81
2022/05/16 12:40:42;;;;;;;12.30;5.97;;;26.60;11.80;;;;;;4976799;28;20486;-81
2022/05/16 12:43:24;;;;;;;10.13;5.47;;;26.50;13.80;;;;;;4978048;28;20494;-81
2022/05/16 12:46:16;;;;;;;11.73;5.70;;;25.90;14.50;;;;;;4978628;28;20463;-80
2022/05/16 12:49:16;;;;;;;12.60;6.20;;;25.70;16.20;;;;;;4976624;28;20862;-79
2022/05/16 12:51:52;;;;;;;15.03;5.70;;;25.60;17.50;;;;;;4979236;28;20447;-80
2022/05/16 12:54:57;;;;;;;14.13;6.43;;;25.60;17.90;;;;;;4978569;28;20442;-80
2022/05/16 12:57:42;;;;;;;12.50;7.00;;;25.60;17.80;;;;;;4978506;28;20482;-81
2022/05/16 13:00:13;;;;;;;11.97;6.97;;;25.30;17.30;;;;;;4977471;28;20912;-81
2022/05/16 13:02:48;;;;;;;7.90;5.87;;;25.20;19.40;;;;;;4976335;28;20475;-80
2022/05/16 13:05:26;;;;;;;12.60;6.77;;;25.00;20.20;;;;;;4977704;28;20864;-80
2022/05/16 13:08:04;;;;;;;11.50;6.60;;;24.70;21.40;;;;;;4977181;28;20817;-80
2022/05/16 13:10:34;;;;;;;10.17;6.43;;;24.60;22.40;;;;;;4977196;28;20995;-80
2022/05/16 13:13:10;;;;;;;13.60;6.83;;;24.40;24.10;;;;;;4977451;28;20568;-80
2022/05/16 13:15:52;;;;;;;11.23;6.20;;;24.40;23.10;;;;;;4977234;28;20832;-80
2022/05/16 13:18:24;;;;;;;10.53;6.57;;;24.60;23.50;;;;;;4976024;28;20474;-80
2022/05/16 13:20:56;;;;;;;9.43;5.90;;;24.80;23.20;;;;;;4977374;28;20446;-80
2022/05/16 13:23:23;;;;;;;15.77;6.60;;;25.10;21.30;;;;;;4976332;28;20987;-80
2022/05/16 13:31:33;;;;;;;9.37;6.07;;;26.00;17.60;;;;;;4978221;28;20526;-81
2022/05/16 13:34:00;;;;;;;13.47;5.77;;;26.00;16.40;;;;;;4977610;28;20505;-80
2022/05/16 13:36:29;;;;;;;12.37;7.10;;;26.70;16.30;;;;;;4977125;28;20466;-81